createdAt,value
2023-01-20T00:02:14.188Z,7.13
2023-01-20T00:04:46.322Z,6.51
2023-01-20T00:07:16.377Z,6.17
2023-01-20T00:09:46.215Z,6.48
2023-01-20T00:12:28.928Z,6.68
2023-01-20T00:15:01.010Z,6.27
2023-01-20T00:17:33.555Z,6.26
2023-01-20T00:20:06.163Z,6.58
2023-01-20T00:22:42.798Z,6.55
2023-01-20T00:25:13.592Z,6.39
2023-01-20T00:27:43.672Z,6.06
2023-01-20T00:30:19.789Z,6.00
2023-01-20T00:32:49.481Z,6.12
2023-01-20T00:35:19.788Z,6.55
2023-01-20T00:37:57.218Z,6.52
2023-01-20T00:40:29.123Z,6.20
2023-01-20T00:43:01.157Z,6.15
2023-01-20T00:45:31.543Z,6.23
2023-01-20T00:48:04.416Z,6.37
2023-01-20T00:50:34.781Z,6.38
2023-01-20T00:53:08.341Z,6.43
2023-01-20T00:55:40.601Z,7.10
2023-01-20T00:58:09.525Z,6.49
2023-01-20T01:00:36.247Z,6.88
2023-01-20T01:03:06.024Z,6.95
2023-01-20T01:05:41.032Z,6.64
2023-01-20T01:08:12.892Z,6.28
2023-01-20T01:10:42.340Z,7.07
2023-01-20T01:13:12.485Z,6.78
2023-01-20T01:15:42.861Z,6.48
2023-01-20T01:18:09.766Z,6.64
2023-01-20T01:20:39.190Z,6.52
2023-01-20T01:23:10.905Z,6.44
2023-01-20T01:25:38.232Z,6.18
2023-01-20T01:28:05.105Z,6.76
2023-01-20T01:30:40.514Z,6.59
2023-01-20T01:33:12.554Z,6.52
2023-01-20T01:35:45.769Z,6.44
2023-01-20T01:38:14.838Z,6.34
2023-01-20T01:40:51.017Z,6.93
2023-01-20T01:43:25.255Z,6.89
2023-01-20T01:45:57.426Z,6.10
2023-01-20T01:48:47.144Z,6.31
2023-01-20T01:51:17.966Z,6.63
2023-01-20T01:53:48.587Z,6.45
2023-01-20T01:56:19.271Z,6.50
2023-01-20T01:58:52.227Z,6.44
2023-01-20T02:01:19.093Z,6.47
2023-01-20T02:03:55.763Z,6.53
2023-01-20T02:06:23.885Z,6.45
2023-01-20T02:08:56.368Z,6.55
2023-01-20T02:11:25.793Z,6.25
2023-01-20T02:13:56.699Z,6.32
2023-01-20T02:16:42.287Z,6.46
2023-01-20T02:19:17.709Z,6.33
2023-01-20T02:21:56.345Z,6.33
2023-01-20T02:24:38.369Z,6.38
2023-01-20T02:27:24.361Z,6.42
2023-01-20T02:30:09.585Z,6.19
2023-01-20T02:32:50.235Z,6.32
2023-01-20T02:35:40.809Z,5.89
2023-01-20T02:38:19.401Z,5.79
2023-01-20T02:40:49.389Z,5.29
2023-01-20T02:43:18.875Z,5.45
2023-01-20T02:45:50.517Z,5.55
2023-01-20T02:48:29.511Z,5.92
2023-01-20T02:51:01.865Z,5.74
2023-01-20T02:53:39.387Z,5.93
2023-01-20T02:56:26.918Z,5.79
2023-01-20T02:58:59.350Z,6.02
2023-01-20T03:01:38.077Z,6.19
2023-01-20T03:04:16.812Z,6.05
2023-01-20T03:06:47.929Z,5.83
2023-01-20T03:09:26.783Z,6.34
2023-01-20T03:11:56.918Z,6.40
2023-01-20T03:14:26.039Z,6.26
2023-01-20T03:16:56.488Z,6.38
2023-01-20T03:19:27.637Z,6.39
2023-01-20T03:22:11.160Z,6.49
2023-01-20T03:24:45.800Z,6.31
2023-01-20T03:27:13.042Z,6.22
2023-01-20T03:29:40.498Z,6.34
2023-01-20T03:32:13.405Z,5.86
2023-01-20T03:34:43.604Z,6.37
2023-01-20T03:37:13.376Z,6.49
2023-01-20T03:39:40.629Z,6.62
2023-01-20T03:42:19.925Z,6.54
2023-01-20T03:44:55.886Z,6.50
2023-01-20T03:47:28.652Z,6.00
2023-01-20T03:50:36.601Z,6.24
2023-01-20T03:53:09.958Z,6.30
2023-01-20T03:55:42.102Z,6.15
2023-01-20T03:58:22.652Z,6.05
2023-01-20T04:00:57.776Z,6.35
2023-01-20T04:03:32.981Z,6.33
2023-01-20T04:06:04.847Z,6.01
2023-01-20T04:08:56.763Z,6.20
2023-01-20T04:11:29.466Z,6.18
2023-01-20T04:13:59.523Z,6.08
2023-01-20T04:16:28.615Z,6.09
2023-01-20T04:19:01.015Z,6.20
2023-01-20T04:21:36.645Z,6.37
2023-01-20T04:24:09.310Z,5.65
2023-01-20T04:26:35.915Z,6.06
2023-01-20T04:29:11.097Z,5.82
2023-01-20T04:31:39.653Z,5.91
2023-01-20T04:34:06.504Z,6.18
2023-01-20T04:36:33.135Z,6.00
2023-01-20T04:38:59.684Z,6.19
2023-01-20T04:41:26.181Z,6.24
2023-01-20T04:43:52.968Z,6.37
2023-01-20T04:46:19.921Z,6.31
2023-01-20T04:48:46.811Z,6.28
2023-01-20T04:51:16.629Z,6.14
2023-01-20T04:53:43.107Z,6.25
2023-01-20T04:56:13.141Z,5.93
2023-01-20T04:58:57.437Z,5.63
2023-01-20T05:01:24.664Z,5.91
2023-01-20T05:03:53.449Z,5.63
2023-01-20T05:06:20.447Z,6.24
2023-01-20T05:08:47.521Z,5.86
2023-01-20T05:11:18.198Z,5.88
2023-01-20T05:13:49.787Z,6.36
2023-01-20T05:16:28.605Z,6.92
2023-01-20T05:18:59.143Z,6.63
2023-01-20T05:21:29.553Z,6.84
2023-01-20T05:24:00.997Z,5.90
2023-01-20T05:26:35.692Z,6.32
2023-01-20T05:29:03.587Z,6.23
2023-01-20T05:31:36.902Z,6.66
2023-01-20T05:34:06.338Z,5.98
2023-01-20T05:36:36.330Z,6.27
2023-01-20T05:39:04.007Z,6.22
2023-01-20T05:41:33.276Z,6.39
2023-01-20T05:44:03.135Z,6.57
2023-01-20T05:46:35.188Z,6.39
2023-01-20T05:49:08.076Z,6.18
2023-01-20T05:51:44.994Z,6.82
2023-01-20T05:54:18.521Z,6.13
2023-01-20T05:56:55.147Z,6.70
2023-01-20T05:59:23.831Z,6.21
2023-01-20T06:01:52.774Z,6.42
2023-01-20T06:04:26.759Z,6.81
2023-01-20T06:07:00.114Z,6.43
2023-01-20T06:09:27.486Z,6.42
2023-01-20T06:11:56.892Z,5.98
2023-01-20T06:14:30.286Z,6.32
2023-01-20T06:17:03.091Z,6.47
2023-01-20T06:19:36.728Z,6.17
2023-01-20T06:22:10.941Z,6.12
2023-01-20T06:24:40.436Z,6.43
2023-01-20T06:27:13.809Z,6.41
2023-01-20T06:29:47.133Z,6.81
2023-01-20T06:32:17.443Z,6.29
2023-01-20T06:34:56.669Z,6.53
2023-01-20T06:37:29.214Z,6.64
2023-01-20T06:40:01.188Z,6.93
2023-01-20T06:42:37.567Z,6.62
2023-01-20T06:45:07.360Z,6.71
2023-01-20T06:47:43.224Z,6.48
2023-01-20T06:50:12.608Z,6.58
2023-01-20T06:52:42.515Z,6.10
2023-01-20T06:55:10.053Z,6.44
2023-01-20T06:57:39.605Z,6.49
2023-01-20T07:00:09.816Z,6.13
2023-01-20T07:02:36.598Z,6.59
2023-01-20T07:05:08.364Z,6.64
2023-01-20T07:07:38.648Z,6.43
2023-01-20T07:10:08.062Z,6.72
2023-01-20T07:12:43.259Z,7.07
2023-01-20T07:15:13.228Z,6.63
2023-01-20T07:17:49.321Z,6.81
2023-01-20T07:20:21.438Z,6.52
2023-01-20T07:22:55.620Z,7.09
2023-01-20T07:25:22.201Z,6.53
2023-01-20T07:27:48.965Z,6.47
2023-01-20T07:30:25.394Z,6.81
2023-01-20T07:33:03.390Z,6.62
2023-01-20T07:35:33.966Z,6.42
2023-01-20T07:38:01.889Z,6.85
2023-01-20T07:40:34.312Z,6.73
2023-01-20T07:43:10.944Z,6.81
2023-01-20T07:45:37.961Z,6.79
2023-01-20T07:48:05.081Z,6.91
2023-01-20T07:50:37.949Z,7.11
2023-01-20T07:53:07.760Z,6.69
2023-01-20T07:55:38.997Z,6.97
2023-01-20T07:58:14.879Z,7.35
2023-01-20T08:00:49.588Z,6.54
2023-01-20T08:03:20.020Z,7.03
2023-01-20T08:05:53.242Z,7.55
2023-01-20T08:08:21.021Z,7.12
2023-01-20T08:11:03.180Z,6.85
2023-01-20T08:13:35.260Z,6.75
2023-01-20T08:16:09.513Z,6.95
2023-01-20T08:18:42.133Z,6.62
2023-01-20T08:21:19.502Z,6.68
2023-01-20T08:23:50.622Z,7.00
2023-01-20T08:26:36.065Z,7.55
2023-01-20T08:29:17.632Z,6.90
2023-01-20T08:31:49.913Z,7.09
2023-01-20T08:34:21.002Z,6.59
2023-01-20T08:36:54.140Z,6.61
2023-01-20T08:39:24.429Z,6.43
2023-01-20T08:42:02.928Z,7.19
2023-01-20T08:44:35.402Z,7.12
2023-01-20T08:47:04.990Z,7.11
2023-01-20T08:49:35.132Z,7.16
2023-01-20T08:52:07.964Z,6.86
2023-01-20T08:54:41.424Z,7.21
2023-01-20T08:57:17.214Z,7.18
2023-01-20T08:59:55.648Z,7.25
2023-01-20T09:02:25.433Z,6.80
2023-01-20T09:04:55.846Z,7.00
2023-01-20T09:07:28.600Z,7.05
2023-01-20T09:09:58.127Z,7.17
2023-01-20T09:12:27.531Z,7.54
2023-01-20T09:14:57.845Z,7.02
2023-01-20T09:17:33.569Z,7.11
2023-01-20T09:20:04.154Z,6.44
2023-01-20T09:22:33.501Z,6.99
2023-01-20T09:25:06.169Z,7.11
2023-01-20T09:27:42.087Z,7.20
2023-01-20T09:30:11.702Z,6.66
2023-01-20T09:32:44.389Z,7.06
2023-01-20T09:35:17.622Z,7.10
2023-01-20T09:38:02.996Z,7.59
2023-01-20T09:40:54.099Z,7.25
2023-01-20T09:43:53.714Z,7.39
2023-01-20T09:46:39.722Z,7.79
2023-01-20T09:49:48.034Z,7.97
2023-01-20T09:52:35.971Z,7.63
2023-01-20T09:55:10.810Z,7.44
2023-01-20T09:57:43.216Z,7.35
2023-01-20T10:00:22.861Z,7.61
2023-01-20T10:03:02.787Z,7.70
2023-01-20T10:05:43.335Z,7.83
2023-01-20T10:08:22.027Z,8.15
2023-01-20T10:10:58.812Z,8.36
2023-01-20T10:13:32.808Z,7.70
2023-01-20T10:16:09.696Z,8.16
2023-01-20T10:18:54.050Z,8.28
2023-01-20T10:21:27.957Z,8.31
2023-01-20T10:24:03.523Z,9.01
2023-01-20T10:26:49.614Z,8.76
2023-01-20T10:29:24.725Z,8.91
2023-01-20T10:32:17.851Z,9.00
2023-01-20T10:34:48.843Z,8.45
2023-01-20T10:37:19.294Z,8.56
2023-01-20T10:40:07.738Z,9.02
2023-01-20T10:42:37.361Z,9.19
2023-01-20T10:45:15.021Z,9.02
2023-01-20T10:47:47.111Z,9.10
2023-01-20T10:50:36.072Z,9.53
2023-01-20T10:53:12.330Z,9.77
2023-01-20T10:55:42.745Z,9.57
2023-01-20T10:58:21.351Z,9.34
2023-01-20T11:00:57.059Z,9.48
2023-01-20T11:03:29.772Z,9.69
2023-01-20T11:06:07.157Z,9.64
2023-01-20T11:08:41.737Z,9.15
2023-01-20T11:11:14.357Z,9.58
2023-01-20T11:13:46.735Z,8.44
2023-01-20T11:16:38.220Z,9.01
2023-01-20T11:19:06.949Z,8.10
2023-01-20T11:21:43.193Z,9.06
2023-01-20T11:24:33.555Z,8.50
2023-01-20T11:27:14.703Z,8.86
2023-01-20T11:29:46.035Z,8.52
2023-01-20T11:32:31.474Z,8.69
2023-01-20T11:35:06.974Z,9.12
2023-01-20T11:37:39.089Z,9.09
2023-01-20T11:40:29.424Z,9.19
2023-01-20T11:43:02.061Z,8.89
2023-01-20T11:45:34.884Z,9.19
2023-01-20T11:48:21.999Z,9.12
2023-01-20T11:50:58.634Z,9.21
2023-01-20T11:53:34.209Z,9.26
2023-01-20T11:56:22.078Z,8.26
2023-01-20T11:59:02.113Z,9.31
2023-01-20T12:01:29.654Z,8.35
2023-01-20T12:04:05.739Z,8.42
2023-01-20T12:06:44.421Z,8.80
2023-01-20T12:09:15.911Z,9.60
2023-01-20T12:11:52.649Z,9.89
2023-01-20T12:14:29.931Z,9.43
2023-01-20T12:17:15.225Z,9.35
2023-01-20T12:20:02.299Z,9.79
2023-01-20T12:22:38.420Z,9.50
2023-01-20T12:25:25.224Z,9.41
2023-01-20T12:28:01.323Z,9.47
2023-01-20T12:30:43.532Z,7.53
2023-01-20T12:33:21.897Z,9.83
2023-01-20T12:36:05.312Z,10.30
2023-01-20T12:38:44.241Z,9.92
2023-01-20T12:41:22.978Z,10.39
2023-01-20T12:44:00.473Z,10.20
2023-01-20T12:46:50.776Z,10.17
2023-01-20T12:49:17.834Z,9.23
2023-01-20T12:52:08.240Z,9.96
2023-01-20T12:54:48.811Z,10.33
2023-01-20T12:57:34.487Z,10.52
2023-01-20T13:00:10.539Z,10.46
2023-01-20T13:02:40.492Z,10.74
2023-01-20T13:05:29.628Z,10.14
2023-01-20T13:08:11.902Z,10.73
2023-01-20T13:11:01.253Z,10.85
2023-01-20T13:13:56.955Z,10.93
2023-01-20T13:16:35.209Z,10.01
2023-01-20T13:19:19.419Z,10.43
2023-01-20T13:21:56.546Z,10.12
2023-01-20T13:24:34.189Z,10.55
2023-01-20T13:27:06.587Z,10.74
2023-01-20T13:29:40.040Z,10.49
2023-01-20T13:32:29.101Z,10.45
2023-01-20T13:35:03.113Z,10.85
2023-01-20T13:37:35.056Z,11.22
2023-01-20T13:40:12.234Z,11.04
2023-01-20T13:42:42.012Z,11.20
2023-01-20T13:45:19.500Z,11.17
2023-01-20T13:48:20.986Z,11.26
2023-01-20T13:50:54.033Z,11.26
2023-01-20T13:53:28.473Z,11.32
2023-01-20T13:56:02.124Z,10.87
2023-01-20T13:58:37.554Z,10.76
2023-01-20T14:01:06.915Z,10.55
2023-01-20T14:03:39.614Z,10.70
2023-01-20T14:06:19.425Z,10.82
2023-01-20T14:08:50.461Z,10.80
2023-01-20T14:11:24.068Z,10.52
2023-01-20T14:13:56.556Z,10.95
2023-01-20T14:16:32.018Z,10.84
2023-01-20T14:19:14.003Z,10.91
2023-01-20T14:21:45.147Z,10.80
2023-01-20T14:24:50.327Z,10.97
2023-01-20T14:27:29.809Z,10.90
2023-01-20T14:29:59.793Z,10.96
2023-01-20T14:32:29.675Z,10.90
2023-01-20T14:34:59.629Z,10.91
2023-01-20T14:37:30.666Z,9.98
2023-01-20T14:40:05.993Z,8.78
2023-01-20T14:42:37.959Z,8.36
2023-01-20T14:45:21.382Z,8.63
2023-01-20T14:47:54.740Z,9.29
2023-01-20T14:50:35.033Z,9.94
2023-01-20T14:53:10.973Z,9.64
2023-01-20T14:55:43.347Z,9.79
2023-01-20T14:58:19.550Z,10.24
2023-01-20T15:00:56.306Z,9.76
2023-01-20T15:03:33.350Z,8.65
2023-01-20T15:06:06.732Z,7.70
2023-01-20T15:08:40.032Z,8.01
2023-01-20T15:11:21.855Z,8.84
2023-01-20T15:13:55.511Z,8.83
2023-01-20T15:16:29.757Z,8.75
2023-01-20T15:19:19.686Z,9.18
2023-01-20T15:21:56.695Z,9.45
2023-01-20T15:24:32.828Z,9.62
2023-01-20T15:27:05.957Z,8.87
2023-01-20T15:29:40.915Z,8.94
2023-01-20T15:32:19.521Z,9.06
2023-01-20T15:34:56.329Z,8.45
2023-01-20T15:37:24.566Z,8.97
2023-01-20T15:39:53.179Z,8.90
2023-01-20T15:42:25.164Z,8.65
2023-01-20T15:44:55.216Z,8.78
2023-01-20T15:47:27.253Z,9.24
2023-01-20T15:50:02.327Z,9.08
2023-01-20T15:52:35.482Z,9.65
2023-01-20T15:55:04.637Z,9.71
2023-01-20T15:57:35.157Z,9.72
2023-01-20T16:00:06.802Z,9.97
2023-01-20T16:02:36.068Z,9.98
2023-01-20T16:05:08.796Z,9.98
2023-01-20T16:07:35.139Z,10.17
2023-01-20T16:10:03.546Z,9.91
2023-01-20T16:12:30.172Z,10.03
2023-01-20T16:15:00.935Z,9.87
2023-01-20T16:17:30.131Z,9.86
2023-01-20T16:19:59.119Z,9.54
2023-01-20T16:22:25.799Z,9.14
2023-01-20T16:24:54.141Z,9.63
2023-01-20T16:27:24.735Z,9.78
2023-01-20T16:29:51.414Z,9.43
2023-01-20T16:32:22.287Z,9.36
2023-01-20T16:34:49.642Z,9.69
2023-01-20T16:37:16.527Z,9.37
2023-01-20T16:39:43.449Z,8.69
2023-01-20T16:42:14.312Z,9.26
2023-01-20T16:44:41.012Z,9.07
2023-01-20T16:47:08.552Z,8.78
2023-01-20T16:49:42.339Z,9.24
2023-01-20T16:52:12.193Z,8.67
2023-01-20T16:54:45.086Z,8.26
2023-01-20T16:57:14.622Z,8.20
2023-01-20T16:59:47.123Z,7.91
2023-01-20T17:02:14.419Z,8.06
2023-01-20T17:04:45.119Z,8.08
2023-01-20T17:07:15.272Z,8.69
2023-01-20T17:09:42.684Z,8.67
2023-01-20T17:12:09.502Z,8.62
2023-01-20T17:14:38.964Z,8.85
2023-01-20T17:17:10.248Z,8.49
2023-01-20T17:19:41.109Z,8.55
2023-01-20T17:22:08.487Z,8.53
2023-01-20T17:24:35.320Z,8.76
2023-01-20T17:27:02.865Z,8.72
2023-01-20T17:29:35.383Z,8.23
2023-01-20T17:32:06.548Z,8.82
2023-01-20T17:34:39.097Z,9.31
2023-01-20T17:37:05.844Z,9.01
2023-01-20T17:39:40.842Z,8.99
2023-01-20T17:42:07.621Z,8.75
2023-01-20T17:44:39.180Z,9.01
2023-01-20T17:47:05.811Z,9.01
2023-01-20T17:49:32.683Z,9.05
2023-01-20T17:51:59.296Z,9.12
2023-01-20T17:54:26.767Z,9.34
2023-01-20T17:56:53.475Z,9.60
2023-01-20T17:59:23.368Z,9.33
2023-01-20T18:01:53.538Z,9.49
2023-01-20T18:04:22.699Z,9.40
2023-01-20T18:06:58.955Z,9.49
2023-01-20T18:09:25.722Z,9.42
2023-01-20T18:11:58.456Z,8.58
2023-01-20T18:14:38.728Z,8.96
2023-01-20T18:17:06.030Z,8.90
2023-01-20T18:19:35.769Z,8.44
2023-01-20T18:22:07.113Z,8.26
2023-01-20T18:24:36.699Z,7.66
2023-01-20T18:27:03.235Z,7.89
2023-01-20T18:29:36.915Z,8.12
2023-01-20T18:32:03.881Z,7.31
2023-01-20T18:34:34.895Z,7.64
2023-01-20T18:37:03.140Z,8.24
2023-01-20T18:39:37.029Z,7.98
2023-01-20T18:42:07.240Z,8.36
2023-01-20T18:44:36.749Z,8.46
2023-01-20T18:47:06.122Z,8.73
2023-01-20T18:49:42.912Z,8.29
2023-01-20T18:52:15.307Z,7.95
2023-01-20T18:54:41.768Z,7.85
2023-01-20T18:57:09.340Z,7.53
2023-01-20T18:59:37.182Z,7.46
2023-01-20T19:02:08.885Z,7.21
2023-01-20T19:04:37.069Z,7.21
2023-01-20T19:07:07.753Z,8.10
2023-01-20T19:09:34.625Z,7.66
2023-01-20T19:12:04.760Z,8.16
2023-01-20T19:14:34.843Z,8.20
2023-01-20T19:17:01.571Z,8.55
2023-01-20T19:19:28.943Z,8.94
2023-01-20T19:21:57.543Z,8.72
2023-01-20T19:24:28.962Z,9.19
2023-01-20T19:26:58.515Z,9.14
2023-01-20T19:29:29.115Z,8.78
2023-01-20T19:31:55.755Z,8.67
2023-01-20T19:34:25.313Z,9.02
2023-01-20T19:36:51.812Z,9.18
2023-01-20T19:39:18.457Z,9.26
2023-01-20T19:41:45.295Z,9.17
2023-01-20T19:44:17.948Z,8.31
2023-01-20T19:46:44.522Z,8.94
2023-01-20T19:49:15.645Z,9.29
2023-01-20T19:51:45.901Z,9.35
2023-01-20T19:54:13.343Z,9.37
2023-01-20T19:56:40.476Z,9.53
2023-01-20T19:59:12.489Z,9.66
2023-01-20T20:01:45.288Z,9.46
2023-01-20T20:04:16.234Z,9.55
2023-01-20T20:06:48.440Z,9.39
2023-01-20T20:09:23.477Z,8.87
2023-01-20T20:11:53.592Z,8.78
2023-01-20T20:14:23.185Z,9.00
2023-01-20T20:16:59.348Z,8.67
2023-01-20T20:19:32.534Z,8.70
2023-01-20T20:22:08.355Z,8.20
2023-01-20T20:24:34.953Z,8.15
2023-01-20T20:27:05.010Z,8.26
2023-01-20T20:29:32.065Z,8.87
2023-01-20T20:31:58.569Z,9.18
2023-01-20T20:34:24.985Z,9.24
2023-01-20T20:37:00.987Z,9.51
2023-01-20T20:39:27.507Z,9.24
2023-01-20T20:41:59.942Z,9.27
2023-01-20T20:44:26.891Z,9.61
2023-01-20T20:46:53.430Z,9.52
2023-01-20T20:49:21.146Z,8.99
2023-01-20T20:51:47.907Z,8.92
2023-01-20T20:54:16.865Z,9.15
2023-01-20T20:56:46.997Z,8.32
2023-01-20T20:59:15.594Z,7.42
2023-01-20T21:01:46.411Z,7.14
2023-01-20T21:04:17.411Z,6.80
2023-01-20T21:06:44.257Z,6.90
2023-01-20T21:09:12.716Z,6.92
2023-01-20T21:11:41.519Z,7.55
2023-01-20T21:14:09.841Z,7.54
2023-01-20T21:16:36.624Z,7.76
2023-01-20T21:19:04.407Z,7.72
2023-01-20T21:21:30.935Z,8.65
2023-01-20T21:23:58.702Z,9.00
2023-01-20T21:26:28.967Z,9.17
2023-01-20T21:28:56.690Z,9.12
2023-01-20T21:31:26.448Z,9.06
2023-01-20T21:33:54.889Z,8.92
2023-01-20T21:36:21.976Z,8.66
2023-01-20T21:38:48.651Z,8.71
2023-01-20T21:41:15.870Z,7.97
2023-01-20T21:44:02.085Z,7.89
2023-01-20T21:46:29.425Z,7.41
2023-01-20T21:49:14.769Z,8.00
2023-01-20T21:51:59.821Z,8.18
2023-01-20T21:54:30.250Z,8.83
2023-01-20T21:56:57.079Z,9.14
2023-01-20T21:59:23.821Z,8.02
2023-01-20T22:01:52.939Z,7.98
2023-01-20T22:04:19.698Z,6.61
2023-01-20T22:06:46.275Z,7.88
2023-01-20T22:09:13.101Z,7.28
2023-01-20T22:11:39.837Z,7.77
2023-01-20T22:14:06.412Z,7.32
2023-01-20T22:16:33.143Z,7.00
2023-01-20T22:19:01.158Z,8.04
2023-01-20T22:21:27.644Z,8.45
2023-01-20T22:23:53.990Z,8.23
2023-01-20T22:26:20.583Z,8.10
2023-01-20T22:28:47.612Z,7.65
2023-01-20T22:31:22.098Z,8.18
2023-01-20T22:33:52.885Z,8.66
2023-01-20T22:36:25.834Z,8.50
2023-01-20T22:38:52.884Z,7.82
2023-01-20T22:41:20.601Z,7.27
2023-01-20T22:43:48.263Z,6.79
2023-01-20T22:46:19.429Z,7.13
2023-01-20T22:48:46.602Z,7.12
2023-01-20T22:51:21.495Z,7.24
2023-01-20T22:53:49.193Z,7.91
2023-01-20T22:56:18.236Z,7.81
2023-01-20T22:58:45.245Z,8.36
2023-01-20T23:01:19.389Z,8.74
2023-01-20T23:03:46.414Z,9.03
2023-01-20T23:06:13.068Z,8.69
2023-01-20T23:08:40.483Z,9.06
2023-01-20T23:11:13.149Z,7.82
2023-01-20T23:13:45.881Z,8.43
2023-01-20T23:16:18.810Z,8.71
2023-01-20T23:18:46.502Z,9.02
2023-01-20T23:21:19.259Z,7.92
2023-01-20T23:23:45.998Z,8.27
2023-01-20T23:26:18.967Z,8.55
2023-01-20T23:28:46.471Z,8.61
2023-01-20T23:31:15.516Z,7.96
2023-01-20T23:33:44.383Z,8.30
2023-01-20T23:36:13.282Z,8.01
2023-01-20T23:38:39.976Z,7.92
2023-01-20T23:41:07.425Z,7.56
2023-01-20T23:43:34.064Z,7.71
2023-01-20T23:46:04.813Z,6.92
2023-01-20T23:48:32.304Z,6.98
2023-01-20T23:51:02.074Z,7.58
2023-01-20T23:53:29.592Z,7.99
2023-01-20T23:56:01.800Z,7.12
2023-01-20T23:58:28.829Z,7.23
